sensor_id;sensor_type;location;lat;lon;timestamp;pressure;altitude;pressure_sealevel;temperature;humidity
41312;BME280;27061;41.648;24.568;2023-05-21T00:00:28;85699.59;;;11.87;74.78
41312;BME280;27061;41.648;24.568;2023-05-21T00:02:55;85690.75;;;11.78;74.90
41312;BME280;27061;41.648;24.568;2023-05-21T00:05:25;85684.44;;;11.84;74.40
41312;BME280;27061;41.648;24.568;2023-05-21T00:07:52;85744.66;;;12.24;74.65
41312;BME280;27061;41.648;24.568;2023-05-21T00:10:20;85700.28;;;11.87;74.51
41312;BME280;27061;41.648;24.568;2023-05-21T00:12:48;85716.19;;;12.26;73.58
41312;BME280;27061;41.648;24.568;2023-05-21T00:15:15;85749.03;;;12.48;72.60
41312;BME280;27061;41.648;24.568;2023-05-21T00:17:42;85699.63;;;12.20;72.29
41312;BME280;27061;41.648;24.568;2023-05-21T00:20:10;85686.91;;;11.98;72.67
41312;BME280;27061;41.648;24.568;2023-05-21T00:22:38;85719.94;;;12.10;73.13
41312;BME280;27061;41.648;24.568;2023-05-21T00:25:09;85745.56;;;12.48;71.63
41312;BME280;27061;41.648;24.568;2023-05-21T00:27:37;85681.34;;;11.98;72.05
41312;BME280;27061;41.648;24.568;2023-05-21T00:30:05;85673.84;;;11.92;72.48
41312;BME280;27061;41.648;24.568;2023-05-21T00:32:32;85757.94;;;12.53;72.33
41312;BME280;27061;41.648;24.568;2023-05-21T00:34:59;85748.34;;;12.48;71.96
41312;BME280;27061;41.648;24.568;2023-05-21T00:37:26;85714.88;;;12.21;72.09
41312;BME280;27061;41.648;24.568;2023-05-21T00:39:55;85710.19;;;12.13;72.46
41312;BME280;27061;41.648;24.568;2023-05-21T00:42:24;85728.31;;;12.08;73.92
41312;BME280;27061;41.648;24.568;2023-05-21T00:44:57;85761.53;;;12.12;73.88
41312;BME280;27061;41.648;24.568;2023-05-21T00:47:24;85707.97;;;11.85;73.97
41312;BME280;27061;41.648;24.568;2023-05-21T00:49:55;85739.34;;;12.12;73.68
41312;BME280;27061;41.648;24.568;2023-05-21T00:52:23;85763.88;;;12.34;72.40
41312;BME280;27061;41.648;24.568;2023-05-21T00:54:53;85751.22;;;12.41;72.77
41312;BME280;27061;41.648;24.568;2023-05-21T00:57:24;85747.72;;;12.43;71.99
41312;BME280;27061;41.648;24.568;2023-05-21T00:59:53;85753.59;;;12.29;72.91
41312;BME280;27061;41.648;24.568;2023-05-21T01:02:20;85611.28;;;11.29;72.04
41312;BME280;27061;41.648;24.568;2023-05-21T01:04:53;85751.75;;;12.17;73.25
41312;BME280;27061;41.648;24.568;2023-05-21T01:07:21;85672.50;;;11.54;73.89
41312;BME280;27061;41.648;24.568;2023-05-21T01:09:49;85691.94;;;11.52;73.20
41312;BME280;27061;41.648;24.568;2023-05-21T01:12:17;85668.66;;;11.37;73.03
41312;BME280;27061;41.648;24.568;2023-05-21T01:14:44;85709.50;;;11.78;73.11
41312;BME280;27061;41.648;24.568;2023-05-21T01:17:12;85737.97;;;12.11;72.98
41312;BME280;27061;41.648;24.568;2023-05-21T01:19:39;85663.41;;;11.58;72.69
41312;BME280;27061;41.648;24.568;2023-05-21T01:22:09;85673.63;;;11.67;72.56
41312;BME280;27061;41.648;24.568;2023-05-21T01:24:44;85676.97;;;11.74;72.71
41312;BME280;27061;41.648;24.568;2023-05-21T01:27:13;85725.22;;;12.24;72.15
41312;BME280;27061;41.648;24.568;2023-05-21T01:29:40;85636.09;;;11.35;75.00
41312;BME280;27061;41.648;24.568;2023-05-21T01:34:49;85666.09;;;11.62;75.13
41312;BME280;27061;41.648;24.568;2023-05-21T01:37:46;85704.56;;;11.82;75.50
41312;BME280;27061;41.648;24.568;2023-05-21T01:40:40;85705.38;;;11.74;75.12
41312;BME280;27061;41.648;24.568;2023-05-21T01:43:05;85696.78;;;11.89;74.68
41312;BME280;27061;41.648;24.568;2023-05-21T01:45:35;85702.34;;;11.89;74.74
41312;BME280;27061;41.648;24.568;2023-05-21T01:48:05;85676.34;;;11.69;74.97
41312;BME280;27061;41.648;24.568;2023-05-21T01:50:34;85700.25;;;11.89;75.00
41312;BME280;27061;41.648;24.568;2023-05-21T01:53:03;85663.84;;;11.70;73.75
41312;BME280;27061;41.648;24.568;2023-05-21T01:55:32;85646.50;;;11.35;74.15
41312;BME280;27061;41.648;24.568;2023-05-21T01:57:59;85690.56;;;11.88;73.93
41312;BME280;27061;41.648;24.568;2023-05-21T02:00:28;85686.56;;;11.81;74.40
41312;BME280;27061;41.648;24.568;2023-05-21T02:02:57;85669.59;;;11.60;74.74
41312;BME280;27061;41.648;24.568;2023-05-21T02:05:25;85629.66;;;11.47;74.11
41312;BME280;27061;41.648;24.568;2023-05-21T02:07:53;85646.25;;;11.49;73.92
41312;BME280;27061;41.648;24.568;2023-05-21T02:10:21;85602.66;;;11.11;74.84
41312;BME280;27061;41.648;24.568;2023-05-21T02:12:48;85500.00;;;10.47;73.64
41312;BME280;27061;41.648;24.568;2023-05-21T02:15:15;85632.75;;;11.31;74.38
41312;BME280;27061;41.648;24.568;2023-05-21T02:17:45;85640.84;;;11.43;73.79
41312;BME280;27061;41.648;24.568;2023-05-21T02:20:16;85706.28;;;12.00;73.28
41312;BME280;27061;41.648;24.568;2023-05-21T02:22:45;85703.53;;;11.98;73.95
41312;BME280;27061;41.648;24.568;2023-05-21T02:25:15;85523.19;;;10.64;73.84
41312;BME280;27061;41.648;24.568;2023-05-21T02:27:43;85596.81;;;11.25;73.67
41312;BME280;27061;41.648;24.568;2023-05-21T02:30:16;85522.81;;;10.47;74.10
41312;BME280;27061;41.648;24.568;2023-05-21T02:32:43;85645.41;;;11.57;74.56
41312;BME280;27061;41.648;24.568;2023-05-21T02:35:12;85682.34;;;11.84;74.45
41312;BME280;27061;41.648;24.568;2023-05-21T02:37:39;85605.25;;;11.19;74.27
41312;BME280;27061;41.648;24.568;2023-05-21T02:40:07;85638.63;;;11.50;74.86
41312;BME280;27061;41.648;24.568;2023-05-21T02:42:37;85632.72;;;11.33;75.43
41312;BME280;27061;41.648;24.568;2023-05-21T02:45:09;85652.28;;;11.60;74.59
41312;BME280;27061;41.648;24.568;2023-05-21T02:47:40;85592.28;;;11.09;74.27
41312;BME280;27061;41.648;24.568;2023-05-21T02:50:08;85642.22;;;11.42;74.89
41312;BME280;27061;41.648;24.568;2023-05-21T02:52:42;85691.44;;;11.79;75.36
41312;BME280;27061;41.648;24.568;2023-05-21T02:55:09;85654.63;;;11.45;75.38
41312;BME280;27061;41.648;24.568;2023-05-21T02:57:36;85687.91;;;11.82;74.89
41312;BME280;27061;41.648;24.568;2023-05-21T03:00:04;85579.63;;;10.81;74.83
41312;BME280;27061;41.648;24.568;2023-05-21T03:02:32;85669.78;;;11.50;75.12
41312;BME280;27061;41.648;24.568;2023-05-21T03:05:00;85605.34;;;11.13;74.97
41312;BME280;27061;41.648;24.568;2023-05-21T03:07:27;85672.34;;;11.62;74.15
41312;BME280;27061;41.648;24.568;2023-05-21T03:09:54;85681.75;;;11.78;73.86
41312;BME280;27061;41.648;24.568;2023-05-21T03:12:21;85699.59;;;11.87;74.92
41312;BME280;27061;41.648;24.568;2023-05-21T03:14:48;85696.94;;;11.83;75.48
41312;BME280;27061;41.648;24.568;2023-05-21T03:17:18;85643.16;;;11.65;74.01
41312;BME280;27061;41.648;24.568;2023-05-21T03:19:46;85606.59;;;11.22;74.58
41312;BME280;27061;41.648;24.568;2023-05-21T03:22:15;85642.84;;;11.45;74.53
41312;BME280;27061;41.648;24.568;2023-05-21T03:24:42;85645.69;;;11.43;74.37
41312;BME280;27061;41.648;24.568;2023-05-21T03:27:11;85653.34;;;11.40;74.90
41312;BME280;27061;41.648;24.568;2023-05-21T03:29:39;85666.78;;;11.62;75.28
41312;BME280;27061;41.648;24.568;2023-05-21T03:32:07;85683.66;;;11.87;75.13
41312;BME280;27061;41.648;24.568;2023-05-21T03:34:34;85628.31;;;11.44;74.72
41312;BME280;27061;41.648;24.568;2023-05-21T03:37:02;85656.94;;;11.69;74.56
41312;BME280;27061;41.648;24.568;2023-05-21T03:39:30;85647.41;;;11.60;73.53
41312;BME280;27061;41.648;24.568;2023-05-21T03:41:58;85689.13;;;11.91;73.55
41312;BME280;27061;41.648;24.568;2023-05-21T03:44:40;85637.91;;;11.51;74.24
41312;BME280;27061;41.648;24.568;2023-05-21T03:47:30;85671.88;;;11.87;74.01
41312;BME280;27061;41.648;24.568;2023-05-21T03:49:59;85685.69;;;11.89;73.32
41312;BME280;27061;41.648;24.568;2023-05-21T03:52:27;85697.41;;;11.93;73.70
41312;BME280;27061;41.648;24.568;2023-05-21T03:54:54;85692.53;;;11.94;72.46
41312;BME280;27061;41.648;24.568;2023-05-21T03:57:21;85645.28;;;11.63;72.79
41312;BME280;27061;41.648;24.568;2023-05-21T03:59:48;85694.00;;;11.91;73.84
41312;BME280;27061;41.648;24.568;2023-05-21T04:02:16;85693.88;;;11.97;73.21
41312;BME280;27061;41.648;24.568;2023-05-21T04:04:43;85618.88;;;11.31;73.96
41312;BME280;27061;41.648;24.568;2023-05-21T04:07:11;85657.84;;;11.58;74.04
41312;BME280;27061;41.648;24.568;2023-05-21T04:09:41;85674.38;;;11.64;72.67
41312;BME280;27061;41.648;24.568;2023-05-21T04:12:08;85681.75;;;11.78;72.73
41312;BME280;27061;41.648;24.568;2023-05-21T04:14:35;85627.16;;;11.33;72.94
41312;BME280;27061;41.648;24.568;2023-05-21T04:17:03;85617.75;;;11.18;72.60
41312;BME280;27061;41.648;24.568;2023-05-21T04:19:31;85597.44;;;10.92;74.32
41312;BME280;27061;41.648;24.568;2023-05-21T04:21:59;85643.63;;;11.41;73.39
41312;BME280;27061;41.648;24.568;2023-05-21T04:24:28;85680.53;;;11.68;72.73
41312;BME280;27061;41.648;24.568;2023-05-21T04:27:09;85662.63;;;11.63;73.79
41312;BME280;27061;41.648;24.568;2023-05-21T04:29:36;85655.00;;;11.62;74.14
41312;BME280;27061;41.648;24.568;2023-05-21T04:32:09;85684.44;;;11.84;73.01
41312;BME280;27061;41.648;24.568;2023-05-21T04:34:38;85642.75;;;11.51;72.29
41312;BME280;27061;41.648;24.568;2023-05-21T04:37:05;85636.78;;;11.36;73.90
41312;BME280;27061;41.648;24.568;2023-05-21T04:39:32;85686.69;;;11.75;74.95
41312;BME280;27061;41.648;24.568;2023-05-21T04:42:01;85652.44;;;11.52;73.09
41312;BME280;27061;41.648;24.568;2023-05-21T04:44:29;85656.28;;;11.67;72.66
41312;BME280;27061;41.648;24.568;2023-05-21T04:46:58;85708.38;;;11.99;72.33
41312;BME280;27061;41.648;24.568;2023-05-21T04:49:26;85702.69;;;12.07;71.59
41312;BME280;27061;41.648;24.568;2023-05-21T04:51:53;85700.50;;;12.12;71.14
41312;BME280;27061;41.648;24.568;2023-05-21T04:54:21;85610.41;;;11.39;70.84
41312;BME280;27061;41.648;24.568;2023-05-21T04:56:48;85712.94;;;12.15;70.64
41312;BME280;27061;41.648;24.568;2023-05-21T04:59:16;85701.84;;;12.13;71.42
41312;BME280;27061;41.648;24.568;2023-05-21T05:01:45;85626.19;;;11.47;70.94
41312;BME280;27061;41.648;24.568;2023-05-21T05:04:12;85710.22;;;12.11;71.50
41312;BME280;27061;41.648;24.568;2023-05-21T05:06:39;85643.75;;;11.70;71.45
41312;BME280;27061;41.648;24.568;2023-05-21T05:09:06;85692.81;;;12.15;70.14
41312;BME280;27061;41.648;24.568;2023-05-21T05:11:34;85699.91;;;12.07;70.95
41312;BME280;27061;41.648;24.568;2023-05-21T05:14:02;85680.53;;;12.05;71.49
41312;BME280;27061;41.648;24.568;2023-05-21T05:16:29;85681.44;;;11.94;71.03
41312;BME280;27061;41.648;24.568;2023-05-21T05:19:00;85697.41;;;11.93;72.03
41312;BME280;27061;41.648;24.568;2023-05-21T05:21:27;85696.56;;;12.01;71.92
41312;BME280;27061;41.648;24.568;2023-05-21T05:23:54;85606.13;;;11.44;71.86
41312;BME280;27061;41.648;24.568;2023-05-21T05:26:25;85636.19;;;11.66;70.95
41312;BME280;27061;41.648;24.568;2023-05-21T05:28:53;85619.88;;;11.52;72.01
41312;BME280;27061;41.648;24.568;2023-05-21T05:31:20;85667.13;;;11.81;72.50
41312;BME280;27061;41.648;24.568;2023-05-21T05:33:48;85643.00;;;11.73;72.11
41312;BME280;27061;41.648;24.568;2023-05-21T05:36:15;85699.59;;;12.22;71.03
41312;BME280;27061;41.648;24.568;2023-05-21T05:38:43;85627.84;;;11.68;71.24
41312;BME280;27061;41.648;24.568;2023-05-21T05:41:10;85711.84;;;12.33;69.99
41312;BME280;27061;41.648;24.568;2023-05-21T05:43:37;85727.38;;;12.20;71.61
41312;BME280;27061;41.648;24.568;2023-05-21T05:46:05;85691.09;;;11.97;72.76
41312;BME280;27061;41.648;24.568;2023-05-21T05:48:32;85697.69;;;12.14;73.07
41312;BME280;27061;41.648;24.568;2023-05-21T05:51:00;85694.50;;;11.99;73.32
41312;BME280;27061;41.648;24.568;2023-05-21T05:53:29;85705.94;;;12.18;73.50
41312;BME280;27061;41.648;24.568;2023-05-21T05:55:58;85723.31;;;12.17;74.29
41312;BME280;27061;41.648;24.568;2023-05-21T05:58:29;85630.84;;;11.56;74.71
41312;BME280;27061;41.648;24.568;2023-05-21T06:01:07;85708.78;;;12.14;74.73
41312;BME280;27061;41.648;24.568;2023-05-21T06:03:34;85681.66;;;11.84;72.78
41312;BME280;27061;41.648;24.568;2023-05-21T06:06:09;85691.47;;;11.77;74.21
41312;BME280;27061;41.648;24.568;2023-05-21T06:08:37;85716.63;;;12.03;75.34
41312;BME280;27061;41.648;24.568;2023-05-21T06:11:06;85729.00;;;12.08;74.16
41312;BME280;27061;41.648;24.568;2023-05-21T06:13:33;85534.06;;;10.74;74.20
41312;BME280;27061;41.648;24.568;2023-05-21T06:16:02;85724.59;;;12.20;74.11
41312;BME280;27061;41.648;24.568;2023-05-21T06:18:30;85730.97;;;12.14;74.31
41312;BME280;27061;41.648;24.568;2023-05-21T06:20:57;85714.63;;;11.98;75.03
41312;BME280;27061;41.648;24.568;2023-05-21T06:23:25;85660.09;;;11.49;73.01
41312;BME280;27061;41.648;24.568;2023-05-21T06:25:53;85692.78;;;11.82;74.18
41312;BME280;27061;41.648;24.568;2023-05-21T06:28:20;85596.03;;;10.93;74.80
41312;BME280;27061;41.648;24.568;2023-05-21T06:30:48;85553.28;;;10.45;75.33
41312;BME280;27061;41.648;24.568;2023-05-21T06:33:15;85708.38;;;11.62;76.95
41312;BME280;27061;41.648;24.568;2023-05-21T06:35:43;85716.47;;;11.74;76.16
41312;BME280;27061;41.648;24.568;2023-05-21T06:38:10;85700.75;;;11.63;74.53
41312;BME280;27061;41.648;24.568;2023-05-21T06:40:38;85676.22;;;11.41;75.54
41312;BME280;27061;41.648;24.568;2023-05-21T06:43:08;85698.88;;;11.51;76.23
41312;BME280;27061;41.648;24.568;2023-05-21T06:45:35;85729.06;;;11.67;76.74
41312;BME280;27061;41.648;24.568;2023-05-21T06:48:16;85725.63;;;11.67;76.01
41312;BME280;27061;41.648;24.568;2023-05-21T06:50:44;85704.00;;;11.36;78.29
41312;BME280;27061;41.648;24.568;2023-05-21T06:53:14;85558.19;;;10.41;78.53
41312;BME280;27061;41.648;24.568;2023-05-21T06:55:43;85587.38;;;10.34;79.44
41312;BME280;27061;41.648;24.568;2023-05-21T06:58:28;85661.19;;;10.90;78.18
41312;BME280;27061;41.648;24.568;2023-05-21T07:00:58;85640.13;;;11.06;78.28
41312;BME280;27061;41.648;24.568;2023-05-21T07:03:26;85692.88;;;11.38;79.14
41312;BME280;27061;41.648;24.568;2023-05-21T07:05:54;85581.44;;;10.58;78.75
41312;BME280;27061;41.648;24.568;2023-05-21T07:08:21;85685.69;;;11.54;77.73
41312;BME280;27061;41.648;24.568;2023-05-21T07:10:49;85666.09;;;11.25;78.44
41312;BME280;27061;41.648;24.568;2023-05-21T07:13:17;85714.84;;;11.51;78.50
41312;BME280;27061;41.648;24.568;2023-05-21T07:15:45;85724.16;;;11.72;78.93
41312;BME280;27061;41.648;24.568;2023-05-21T07:18:13;85645.47;;;11.16;79.20
41312;BME280;27061;41.648;24.568;2023-05-21T07:20:40;85663.97;;;11.27;77.71
41312;BME280;27061;41.648;24.568;2023-05-21T07:23:10;85695.66;;;11.38;79.28
41312;BME280;27061;41.648;24.568;2023-05-21T07:25:38;85733.25;;;11.66;79.53
41312;BME280;27061;41.648;24.568;2023-05-21T07:28:05;85682.53;;;11.35;79.53
41312;BME280;27061;41.648;24.568;2023-05-21T07:30:34;85709.44;;;11.82;77.15
41312;BME280;27061;41.648;24.568;2023-05-21T07:33:08;85669.97;;;11.40;77.15
41312;BME280;27061;41.648;24.568;2023-05-21T07:35:35;85634.50;;;11.12;78.29
41312;BME280;27061;41.648;24.568;2023-05-21T07:38:03;85706.81;;;11.71;78.10
41312;BME280;27061;41.648;24.568;2023-05-21T07:40:30;85646.13;;;11.18;78.82
41312;BME280;27061;41.648;24.568;2023-05-21T07:42:57;85731.00;;;11.77;79.72
41312;BME280;27061;41.648;24.568;2023-05-21T07:45:27;85707.66;;;11.64;79.91
41312;BME280;27061;41.648;24.568;2023-05-21T07:47:55;85688.69;;;11.40;76.53
41312;BME280;27061;41.648;24.568;2023-05-21T07:50:23;85659.09;;;11.30;76.99
41312;BME280;27061;41.648;24.568;2023-05-21T07:52:51;85635.91;;;11.11;76.35
41312;BME280;27061;41.648;24.568;2023-05-21T07:55:19;85737.81;;;11.84;77.25
41312;BME280;27061;41.648;24.568;2023-05-21T07:57:50;85726.38;;;11.63;75.05
41312;BME280;27061;41.648;24.568;2023-05-21T08:00:23;85636.53;;;10.74;77.19
41312;BME280;27061;41.648;24.568;2023-05-21T08:02:55;85708.09;;;11.40;78.25
41312;BME280;27061;41.648;24.568;2023-05-21T08:05:24;85746.28;;;11.74;75.60
41312;BME280;27061;41.648;24.568;2023-05-21T08:07:51;85738.72;;;11.70;75.95
41312;BME280;27061;41.648;24.568;2023-05-21T08:10:19;85691.09;;;11.23;76.58
41312;BME280;27061;41.648;24.568;2023-05-21T08:12:49;85684.31;;;11.14;77.28
41312;BME280;27061;41.648;24.568;2023-05-21T08:15:17;85754.03;;;11.67;76.77
41312;BME280;27061;41.648;24.568;2023-05-21T08:17:44;85742.22;;;11.69;76.01
41312;BME280;27061;41.648;24.568;2023-05-21T08:20:12;85715.63;;;11.45;75.81
41312;BME280;27061;41.648;24.568;2023-05-21T08:22:41;85711.66;;;11.34;77.22
41312;BME280;27061;41.648;24.568;2023-05-21T08:25:10;85668.00;;;10.95;77.55
41312;BME280;27061;41.648;24.568;2023-05-21T08:27:38;85702.91;;;11.19;76.11
41312;BME280;27061;41.648;24.568;2023-05-21T08:30:06;85733.72;;;11.42;76.79
41312;BME280;27061;41.648;24.568;2023-05-21T08:32:33;85758.38;;;11.56;77.30
41312;BME280;27061;41.648;24.568;2023-05-21T08:35:03;85725.59;;;11.30;77.34
41312;BME280;27061;41.648;24.568;2023-05-21T08:37:45;85753.69;;;11.49;77.68
41312;BME280;27061;41.648;24.568;2023-05-21T08:40:23;85700.53;;;10.97;78.40
41312;BME280;27061;41.648;24.568;2023-05-21T08:42:50;85673.84;;;10.77;78.23
41312;BME280;27061;41.648;24.568;2023-05-21T08:45:25;85708.00;;;11.05;77.67
41312;BME280;27061;41.648;24.568;2023-05-21T08:47:57;85745.03;;;11.28;79.01
41312;BME280;27061;41.648;24.568;2023-05-21T08:50:30;85753.84;;;11.38;79.22
41312;BME280;27061;41.648;24.568;2023-05-21T08:53:01;85610.72;;;10.45;76.13
41312;BME280;27061;41.648;24.568;2023-05-21T08:55:41;85755.72;;;11.50;77.56
41312;BME280;27061;41.648;24.568;2023-05-21T08:58:09;85598.88;;;10.05;76.37
41312;BME280;27061;41.648;24.568;2023-05-21T09:00:37;85750.94;;;11.47;76.15
41312;BME280;27061;41.648;24.568;2023-05-21T09:03:05;85770.47;;;11.38;76.95
41312;BME280;27061;41.648;24.568;2023-05-21T09:05:43;85695.34;;;10.75;77.93
41312;BME280;27061;41.648;24.568;2023-05-21T09:08:17;85741.94;;;11.05;79.48
41312;BME280;27061;41.648;24.568;2023-05-21T09:11:00;85764.47;;;11.24;79.26
41312;BME280;27061;41.648;24.568;2023-05-21T09:13:34;85713.16;;;10.88;77.35
41312;BME280;27061;41.648;24.568;2023-05-21T09:16:11;85751.97;;;11.27;76.55
41312;BME280;27061;41.648;24.568;2023-05-21T09:18:38;85720.81;;;10.83;77.25
41312;BME280;27061;41.648;24.568;2023-05-21T09:21:28;85735.84;;;10.96;77.51
41312;BME280;27061;41.648;24.568;2023-05-21T09:24:02;85776.31;;;11.22;77.18
41312;BME280;27061;41.648;24.568;2023-05-21T09:26:29;85772.16;;;11.21;76.53
41312;BME280;27061;41.648;24.568;2023-05-21T09:29:01;85741.41;;;10.94;77.85
41312;BME280;27061;41.648;24.568;2023-05-21T09:31:29;85703.78;;;10.67;77.45
41312;BME280;27061;41.648;24.568;2023-05-21T09:33:56;85735.13;;;10.98;76.54
41312;BME280;27061;41.648;24.568;2023-05-21T09:36:25;85770.78;;;11.20;77.38
41312;BME280;27061;41.648;24.568;2023-05-21T09:38:56;85695.44;;;10.69;76.90
41312;BME280;27061;41.648;24.568;2023-05-21T09:42:01;85504.69;;;9.23;78.44
41312;BME280;27061;41.648;24.568;2023-05-21T09:44:34;85742.66;;;11.04;78.25
41312;BME280;27061;41.648;24.568;2023-05-21T09:47:01;85682.13;;;10.79;78.76
41312;BME280;27061;41.648;24.568;2023-05-21T09:49:28;85748.63;;;11.20;78.81
41312;BME280;27061;41.648;24.568;2023-05-21T09:51:58;85699.81;;;10.98;78.96
41312;BME280;27061;41.648;24.568;2023-05-21T09:54:30;85761.97;;;11.51;78.33
41312;BME280;27061;41.648;24.568;2023-05-21T09:57:04;85748.97;;;11.41;79.06
41312;BME280;27061;41.648;24.568;2023-05-21T09:59:39;85747.28;;;11.56;79.44
41312;BME280;27061;41.648;24.568;2023-05-21T10:02:19;85765.94;;;11.62;79.95
41312;BME280;27061;41.648;24.568;2023-05-21T10:04:49;85756.00;;;11.75;76.97
41312;BME280;27061;41.648;24.568;2023-05-21T10:07:19;85765.72;;;11.74;77.84
41312;BME280;27061;41.648;24.568;2023-05-21T10:09:53;85747.06;;;11.68;75.52
41312;BME280;27061;41.648;24.568;2023-05-21T10:12:24;85675.06;;;11.27;77.93
41312;BME280;27061;41.648;24.568;2023-05-21T10:15:00;85715.38;;;11.59;77.76
41312;BME280;27061;41.648;24.568;2023-05-21T10:17:29;85728.13;;;11.83;78.26
41312;BME280;27061;41.648;24.568;2023-05-21T10:19:58;85724.53;;;11.89;77.14
41312;BME280;27061;41.648;24.568;2023-05-21T10:22:27;85758.06;;;12.12;74.84
41312;BME280;27061;41.648;24.568;2023-05-21T10:24:55;85757.34;;;12.13;77.94
41312;BME280;27061;41.648;24.568;2023-05-21T10:27:23;85725.69;;;12.00;76.61
41312;BME280;27061;41.648;24.568;2023-05-21T10:29:52;85733.28;;;12.03;80.35
41312;BME280;27061;41.648;24.568;2023-05-21T10:32:22;85702.38;;;11.87;79.09
41312;BME280;27061;41.648;24.568;2023-05-21T10:34:53;85758.94;;;12.39;76.64
41312;BME280;27061;41.648;24.568;2023-05-21T10:37:24;85748.66;;;12.31;77.02
41312;BME280;27061;41.648;24.568;2023-05-21T10:39:54;85743.72;;;12.36;77.44
41312;BME280;27061;41.648;24.568;2023-05-21T10:57:12;85772.75;;;12.74;74.25
41312;BME280;27061;41.648;24.568;2023-05-21T10:59:42;85711.06;;;12.38;71.94
41312;BME280;27061;41.648;24.568;2023-05-21T11:02:16;85714.63;;;12.33;75.27
41312;BME280;27061;41.648;24.568;2023-05-21T11:04:46;85765.69;;;12.81;75.00
41312;BME280;27061;41.648;24.568;2023-05-21T11:07:21;85750.00;;;12.67;75.71
41312;BME280;27061;41.648;24.568;2023-05-21T11:09:50;85701.34;;;12.37;74.75
41312;BME280;27061;41.648;24.568;2023-05-21T11:12:19;85721.34;;;12.44;76.35
41312;BME280;27061;41.648;24.568;2023-05-21T11:14:56;85735.59;;;12.59;74.13
41312;BME280;27061;41.648;24.568;2023-05-21T11:17:39;85750.56;;;12.72;74.90
41312;BME280;27061;41.648;24.568;2023-05-21T11:20:11;85734.97;;;12.56;75.80
41312;BME280;27061;41.648;24.568;2023-05-21T11:22:39;85660.44;;;12.03;74.07
41312;BME280;27061;41.648;24.568;2023-05-21T11:25:07;85687.00;;;12.27;72.16
41312;BME280;27061;41.648;24.568;2023-05-21T11:27:39;85764.09;;;12.90;73.73
41312;BME280;27061;41.648;24.568;2023-05-21T11:30:17;85764.88;;;12.84;72.85
41312;BME280;27061;41.648;24.568;2023-05-21T11:38:16;85726.94;;;12.73;70.50
41312;BME280;27061;41.648;24.568;2023-05-21T11:40:51;85744.88;;;12.80;72.94
41312;BME280;27061;41.648;24.568;2023-05-21T11:43:21;85732.00;;;12.64;70.88
41312;BME280;27061;41.648;24.568;2023-05-21T11:45:51;85727.16;;;12.63;70.34
41312;BME280;27061;41.648;24.568;2023-05-21T11:48:20;85729.94;;;12.63;71.37
41312;BME280;27061;41.648;24.568;2023-05-21T11:50:49;85693.19;;;12.29;72.91
41312;BME280;27061;41.648;24.568;2023-05-21T11:53:16;85723.38;;;12.45;73.40
41312;BME280;27061;41.648;24.568;2023-05-21T11:55:45;85719.03;;;12.55;72.31
41312;BME280;27061;41.648;24.568;2023-05-21T11:58:13;85761.31;;;12.90;73.51
41312;BME280;27061;41.648;24.568;2023-05-21T12:00:44;85757.28;;;12.83;74.09
41312;BME280;27061;41.648;24.568;2023-05-21T12:03:13;85757.00;;;12.95;74.35
41312;BME280;27061;41.648;24.568;2023-05-21T12:05:47;85719.53;;;12.63;72.18
41312;BME280;27061;41.648;24.568;2023-05-21T12:08:21;85688.47;;;12.55;70.62
41312;BME280;27061;41.648;24.568;2023-05-21T12:10:58;85758.38;;;12.96;71.07
41312;BME280;27061;41.648;24.568;2023-05-21T12:13:26;85695.44;;;12.54;71.77
41312;BME280;27061;41.648;24.568;2023-05-21T12:15:53;85710.53;;;12.61;72.77
41312;BME280;27061;41.648;24.568;2023-05-21T12:18:21;85715.09;;;12.43;72.06
41312;BME280;27061;41.648;24.568;2023-05-21T12:20:50;85690.06;;;12.45;71.98
41312;BME280;27061;41.648;24.568;2023-05-21T12:23:26;85718.06;;;12.66;71.07
41312;BME280;27061;41.648;24.568;2023-05-21T12:25:54;85700.19;;;12.59;72.63
41312;BME280;27061;41.648;24.568;2023-05-21T12:28:22;85747.25;;;12.96;73.34
41312;BME280;27061;41.648;24.568;2023-05-21T12:30:50;85704.69;;;12.75;73.19
41312;BME280;27061;41.648;24.568;2023-05-21T12:33:19;85568.16;;;11.71;70.22
41312;BME280;27061;41.648;24.568;2023-05-21T12:35:50;85730.78;;;12.88;70.89
41312;BME280;27061;41.648;24.568;2023-05-21T12:38:18;85718.50;;;12.79;72.21
41312;BME280;27061;41.648;24.568;2023-05-21T12:40:46;85673.19;;;12.56;70.76
41312;BME280;27061;41.648;24.568;2023-05-21T12:43:13;85674.69;;;12.51;71.16
41312;BME280;27061;41.648;24.568;2023-05-21T12:45:42;85690.22;;;12.70;73.39
41312;BME280;27061;41.648;24.568;2023-05-21T12:48:09;85558.41;;;11.74;72.54
41312;BME280;27061;41.648;24.568;2023-05-21T12:50:38;85629.00;;;12.45;71.27
41312;BME280;27061;41.648;24.568;2023-05-21T12:53:07;85735.66;;;13.18;70.91
41312;BME280;27061;41.648;24.568;2023-05-21T12:55:36;85668.63;;;12.73;72.44
41312;BME280;27061;41.648;24.568;2023-05-21T12:58:12;85694.78;;;12.82;71.48
41312;BME280;27061;41.648;24.568;2023-05-21T13:00:40;85718.44;;;13.12;72.76
41312;BME280;27061;41.648;24.568;2023-05-21T13:03:08;85680.09;;;12.88;71.64
41312;BME280;27061;41.648;24.568;2023-05-21T13:05:39;85727.28;;;13.21;73.87
41312;BME280;27061;41.648;24.568;2023-05-21T13:08:07;85734.03;;;13.28;73.71
41312;BME280;27061;41.648;24.568;2023-05-21T13:10:36;85735.31;;;13.33;73.87
41312;BME280;27061;41.648;24.568;2023-05-21T13:13:04;85638.25;;;12.65;73.52
41312;BME280;27061;41.648;24.568;2023-05-21T13:15:31;85603.19;;;12.20;70.29
41312;BME280;27061;41.648;24.568;2023-05-21T13:17:58;85725.47;;;13.38;72.09
41312;BME280;27061;41.648;24.568;2023-05-21T13:20:27;85727.03;;;13.31;73.02
41312;BME280;27061;41.648;24.568;2023-05-21T13:22:55;85712.41;;;13.32;69.80
41312;BME280;27061;41.648;24.568;2023-05-21T13:25:23;85663.34;;;12.92;71.05